createdAt,value
2023-04-18T00:01:53.265Z,20.10
2023-04-18T00:04:28.697Z,20.92
2023-04-18T00:07:01.339Z,20.85
2023-04-18T00:09:33.696Z,20.42
2023-04-18T00:12:06.491Z,20.30
2023-04-18T00:14:38.859Z,21.60
2023-04-18T00:17:13.997Z,19.95
2023-04-18T00:19:48.949Z,20.10
2023-04-18T00:22:22.720Z,20.13
2023-04-18T00:24:55.509Z,19.70
2023-04-18T00:27:28.121Z,20.25
2023-04-18T00:30:00.165Z,21.45
2023-04-18T00:32:32.909Z,20.35
2023-04-18T00:35:09.265Z,19.67
2023-04-18T00:37:41.780Z,20.70
2023-04-18T00:40:15.008Z,21.48
2023-04-18T00:42:47.518Z,21.02
2023-04-18T00:45:19.901Z,21.23
2023-04-18T00:47:52.786Z,20.60
2023-04-18T00:50:28.289Z,20.95
2023-04-18T00:53:01.186Z,20.30
2023-04-18T00:55:33.554Z,20.35
2023-04-18T00:58:06.575Z,20.17
2023-04-18T01:00:39.045Z,20.20
2023-04-18T01:03:14.800Z,19.48
2023-04-18T01:05:50.042Z,20.52
2023-04-18T01:08:24.719Z,20.40
2023-04-18T01:10:56.663Z,19.65
2023-04-18T01:13:29.241Z,20.25
2023-04-18T01:16:01.586Z,19.65
2023-04-18T01:18:35.650Z,19.80
2023-04-18T01:21:10.595Z,19.15
2023-04-18T01:23:42.820Z,20.60
2023-04-18T01:26:17.500Z,19.35
2023-04-18T01:28:49.638Z,20.52
2023-04-18T01:31:21.918Z,20.02
2023-04-18T01:33:54.074Z,19.70
2023-04-18T01:36:27.811Z,20.23
2023-04-18T01:38:59.778Z,20.88
2023-04-18T01:41:34.541Z,19.70
2023-04-18T01:44:07.594Z,21.40
2023-04-18T01:46:40.642Z,21.45
2023-04-18T01:49:13.962Z,20.55
2023-04-18T01:51:46.272Z,19.30
2023-04-18T01:54:18.409Z,20.52
2023-04-18T01:56:53.118Z,18.42
2023-04-18T01:59:25.189Z,21.08
2023-04-18T02:01:57.245Z,20.33
2023-04-18T02:04:29.390Z,20.00
2023-04-18T02:07:01.454Z,19.83
2023-04-18T02:09:33.603Z,18.98
2023-04-18T02:12:08.480Z,20.02
2023-04-18T02:14:40.869Z,19.08
2023-04-18T02:20:11.602Z,19.00
2023-04-18T02:22:43.508Z,20.15
2023-04-18T02:25:16.002Z,20.35
2023-04-18T02:27:50.570Z,19.73
2023-04-18T02:30:22.878Z,19.98
2023-04-18T02:32:55.274Z,20.33
2023-04-18T02:35:28.892Z,19.02
2023-04-18T02:38:01.264Z,19.05
2023-04-18T02:40:33.520Z,18.42
2023-04-18T02:43:08.654Z,20.08
2023-04-18T02:45:40.905Z,18.70
2023-04-18T02:48:13.272Z,18.58
2023-04-18T02:50:45.413Z,18.67
2023-04-18T02:53:17.398Z,18.00
2023-04-18T02:55:49.526Z,17.65
2023-04-18T02:58:24.352Z,18.23
2023-04-18T03:00:57.745Z,17.65
2023-04-18T03:03:29.601Z,18.08
2023-04-18T03:06:01.959Z,17.98
2023-04-18T03:08:33.769Z,16.73
2023-04-18T03:11:06.149Z,17.50
2023-04-18T03:13:40.608Z,17.27
2023-04-18T03:16:13.025Z,17.33
2023-04-18T03:18:44.860Z,16.67
2023-04-18T03:21:17.693Z,17.48
2023-04-18T03:23:49.860Z,18.73
2023-04-18T03:26:22.740Z,17.75
2023-04-18T03:28:57.733Z,17.92
2023-04-18T03:31:30.057Z,18.70
2023-04-18T03:34:02.365Z,16.73
2023-04-18T03:36:34.943Z,17.40
2023-04-18T03:39:09.898Z,17.80
2023-04-18T03:41:42.439Z,17.45
2023-04-18T03:44:17.443Z,18.38
2023-04-18T03:46:50.010Z,17.92
2023-04-18T03:49:22.265Z,17.77
2023-04-18T03:51:54.772Z,17.90
2023-04-18T03:54:26.948Z,19.20
2023-04-18T03:56:59.883Z,17.42
2023-04-18T03:59:36.451Z,17.27
2023-04-18T04:02:31.907Z,17.70
2023-04-18T04:05:09.831Z,17.88
2023-04-18T04:07:42.648Z,18.92
2023-04-18T04:10:15.158Z,17.55
2023-04-18T04:12:47.885Z,17.20
2023-04-18T04:15:24.687Z,17.90
2023-04-18T04:17:57.333Z,16.70
2023-04-18T04:20:44.684Z,18.48
2023-04-18T04:23:17.344Z,17.48
2023-04-18T04:25:49.904Z,18.15
2023-04-18T04:28:23.124Z,17.65
2023-04-18T04:30:58.621Z,17.23
2023-04-18T04:33:33.785Z,18.40
2023-04-18T04:36:06.220Z,18.77
2023-04-18T04:38:38.738Z,17.98
2023-04-18T04:41:12.262Z,17.58
2023-04-18T04:43:44.643Z,20.05
2023-04-18T04:46:20.486Z,18.77
2023-04-18T04:48:54.770Z,18.83
2023-04-18T04:51:28.647Z,18.65
2023-04-18T04:54:01.161Z,18.30
2023-04-18T04:56:33.619Z,18.02
2023-04-18T04:59:06.279Z,18.20
2023-04-18T05:01:40.961Z,19.13
2023-04-18T05:04:13.767Z,17.75
2023-04-18T05:06:49.705Z,17.73
2023-04-18T05:09:22.241Z,18.15
2023-04-18T05:11:54.209Z,20.13
2023-04-18T05:14:26.718Z,19.67
2023-04-18T05:17:02.372Z,19.27
2023-04-18T05:19:34.760Z,19.48
2023-04-18T05:22:06.678Z,19.45
2023-04-18T05:24:39.000Z,19.27
2023-04-18T05:27:11.324Z,19.25
2023-04-18T05:29:43.677Z,19.52
2023-04-18T05:32:18.782Z,18.17
2023-04-18T05:34:51.499Z,18.77
2023-04-18T05:37:23.600Z,19.52
2023-04-18T05:39:56.619Z,19.88
2023-04-18T05:42:29.741Z,19.73
2023-04-18T05:45:02.190Z,18.02
2023-04-18T05:47:36.789Z,18.52
2023-04-18T05:50:10.720Z,19.35
2023-04-18T05:52:42.907Z,17.75
2023-04-18T05:55:31.784Z,19.65
2023-04-18T05:58:10.199Z,19.63
2023-04-18T06:00:42.776Z,18.33
2023-04-18T06:03:19.294Z,18.10
2023-04-18T06:05:51.889Z,17.63
2023-04-18T06:08:24.142Z,16.60
2023-04-18T06:10:58.061Z,16.02
2023-04-18T06:13:29.911Z,16.70
2023-04-18T06:16:03.805Z,15.95
2023-04-18T06:18:38.603Z,16.40
2023-04-18T06:21:11.091Z,16.52
2023-04-18T06:23:43.163Z,15.93
2023-04-18T06:26:15.650Z,16.48
2023-04-18T06:28:47.832Z,16.90
2023-04-18T06:31:20.180Z,15.75
2023-04-18T06:33:55.484Z,15.85
2023-04-18T06:36:28.164Z,16.30
2023-04-18T06:39:00.342Z,14.88
2023-04-18T06:41:33.067Z,16.23
2023-04-18T06:44:05.802Z,14.90
2023-04-18T06:46:38.607Z,15.35
2023-04-18T06:49:14.046Z,15.40
2023-04-18T06:51:47.048Z,15.48
2023-04-18T06:54:19.605Z,15.30
2023-04-18T06:56:52.816Z,14.43
2023-04-18T06:59:24.940Z,14.07
2023-04-18T07:01:57.242Z,14.95
2023-04-18T07:04:31.988Z,14.82
2023-04-18T07:07:05.602Z,14.07
2023-04-18T07:09:37.617Z,14.88
2023-04-18T07:12:10.029Z,14.85
2023-04-18T07:14:42.539Z,15.02
2023-04-18T07:17:14.569Z,15.35
2023-04-18T07:19:49.205Z,14.57
2023-04-18T07:22:21.510Z,13.15
2023-04-18T07:24:53.111Z,14.13
2023-04-18T07:27:26.275Z,13.95
2023-04-18T07:29:58.227Z,12.68
2023-04-18T07:32:30.581Z,13.23
2023-04-18T07:35:08.399Z,13.13
2023-04-18T07:37:40.667Z,13.38
2023-04-18T07:40:13.545Z,12.60
2023-04-18T07:42:46.490Z,13.45
2023-04-18T07:45:19.413Z,12.70
2023-04-18T07:47:51.676Z,12.77
2023-04-18T07:50:27.356Z,12.35
2023-04-18T07:52:59.349Z,12.05
2023-04-18T07:55:31.429Z,12.60
2023-04-18T07:58:04.395Z,12.70
2023-04-18T08:00:37.587Z,11.93
2023-04-18T08:03:11.027Z,12.13
2023-04-18T08:05:47.593Z,12.60
2023-04-18T08:08:26.677Z,12.52
2023-04-18T08:10:58.575Z,12.32
2023-04-18T08:13:31.589Z,12.50
2023-04-18T08:16:03.691Z,13.07
2023-04-18T08:18:36.108Z,13.07
2023-04-18T08:21:10.632Z,13.02
2023-04-18T08:23:42.831Z,14.05
2023-04-18T08:26:15.034Z,12.88
2023-04-18T08:28:50.131Z,13.68
2023-04-18T08:31:22.424Z,13.05
2023-04-18T08:33:55.002Z,13.52
2023-04-18T08:36:29.463Z,13.10
2023-04-18T08:39:02.181Z,13.38
2023-04-18T08:41:39.961Z,12.90
2023-04-18T08:44:12.672Z,14.10
2023-04-18T08:46:44.908Z,13.48
2023-04-18T08:49:17.924Z,13.45
2023-04-18T08:51:53.799Z,13.57
2023-04-18T08:54:27.524Z,13.20
2023-04-18T08:57:09.035Z,14.15
2023-04-18T08:59:43.819Z,14.43
2023-04-18T09:02:16.970Z,13.38
2023-04-18T09:04:53.059Z,13.75
2023-04-18T09:07:32.216Z,13.98
2023-04-18T09:10:04.964Z,13.82
2023-04-18T09:12:40.547Z,14.05
2023-04-18T09:15:15.932Z,14.55
2023-04-18T09:17:51.460Z,14.32
2023-04-18T09:20:34.953Z,14.57
2023-04-18T09:23:15.146Z,14.38
2023-04-18T09:25:49.523Z,14.07
2023-04-18T09:28:30.453Z,14.02
2023-04-18T09:31:12.541Z,12.73
2023-04-18T09:33:47.490Z,13.43
2023-04-18T09:36:21.771Z,13.90
2023-04-18T09:38:57.448Z,12.85
2023-04-18T09:41:31.002Z,12.98
2023-04-18T09:44:16.071Z,12.88
2023-04-18T09:46:50.022Z,13.10
2023-04-18T09:49:24.423Z,12.57
2023-04-18T09:51:58.766Z,12.15
2023-04-18T09:54:37.814Z,12.95
2023-04-18T09:57:15.422Z,12.80
2023-04-18T09:59:54.672Z,12.65
2023-04-18T10:02:31.413Z,14.15
2023-04-18T10:05:08.449Z,12.90
2023-04-18T10:07:41.660Z,13.30
2023-04-18T10:10:16.902Z,14.07
2023-04-18T10:12:51.451Z,13.40
2023-04-18T10:15:26.788Z,13.85
2023-04-18T10:18:05.035Z,13.70
2023-04-18T10:20:38.361Z,14.27
2023-04-18T10:23:38.810Z,13.25
2023-04-18T10:26:14.464Z,13.15
2023-04-18T10:28:57.320Z,12.45
2023-04-18T10:31:31.268Z,13.93
2023-04-18T10:34:05.967Z,13.20
2023-04-18T10:36:38.688Z,14.10
2023-04-18T10:39:26.594Z,13.65
2023-04-18T10:42:00.933Z,12.95
2023-04-18T10:44:32.734Z,13.15
2023-04-18T10:47:24.252Z,12.43
2023-04-18T10:50:05.976Z,12.45
2023-04-18T10:52:38.929Z,11.82
2023-04-18T10:55:20.712Z,12.35
2023-04-18T10:57:57.065Z,12.50
2023-04-18T11:00:29.654Z,14.23
2023-04-18T11:03:01.854Z,12.05
2023-04-18T11:05:34.848Z,12.55
2023-04-18T11:08:07.941Z,11.38
2023-04-18T11:10:40.211Z,12.48
2023-04-18T11:13:14.478Z,12.10
2023-04-18T11:15:46.213Z,12.50
2023-04-18T11:18:17.909Z,12.30
2023-04-18T11:20:51.465Z,13.10
2023-04-18T11:23:25.880Z,12.43
2023-04-18T11:25:58.985Z,12.65
2023-04-18T11:28:33.337Z,12.15
2023-04-18T11:31:06.135Z,12.52
2023-04-18T11:33:37.822Z,12.07
2023-04-18T11:36:10.924Z,12.82
2023-04-18T11:38:44.528Z,12.55
2023-04-18T11:41:17.817Z,13.02
2023-04-18T11:43:52.455Z,12.88
2023-04-18T11:46:25.000Z,13.00
2023-04-18T11:48:56.304Z,11.68
2023-04-18T11:51:39.260Z,12.32
2023-04-18T11:54:44.774Z,12.15
2023-04-18T11:57:24.811Z,11.73
2023-04-18T12:00:01.346Z,11.55
2023-04-18T12:02:44.359Z,10.90
2023-04-18T12:05:28.032Z,12.63
2023-04-18T12:08:08.591Z,11.48
2023-04-18T12:10:49.315Z,12.07
2023-04-18T12:13:24.389Z,11.93
2023-04-18T12:16:01.251Z,12.10
2023-04-18T12:18:34.203Z,12.35
2023-04-18T12:21:09.314Z,12.75
2023-04-18T12:23:46.435Z,12.07
2023-04-18T12:26:23.596Z,14.32
2023-04-18T12:28:56.355Z,14.27
2023-04-18T12:31:32.852Z,13.98
2023-04-18T12:34:05.799Z,14.10
2023-04-18T12:36:37.857Z,13.55
2023-04-18T12:39:10.053Z,14.20
2023-04-18T12:41:41.730Z,13.02
2023-04-18T12:44:13.965Z,14.38
2023-04-18T12:46:50.211Z,13.60
2023-04-18T12:49:22.674Z,14.43
2023-04-18T12:51:54.911Z,13.90
2023-04-18T12:54:29.554Z,14.07
2023-04-18T12:57:02.233Z,14.48
2023-04-18T12:59:34.790Z,14.93
2023-04-18T13:02:10.248Z,14.95
2023-04-18T13:04:43.460Z,15.52
2023-04-18T13:07:16.473Z,15.15
2023-04-18T13:09:49.836Z,15.55
2023-04-18T13:12:22.607Z,15.73
2023-04-18T13:14:55.633Z,15.27
2023-04-18T13:17:33.869Z,16.10
2023-04-18T13:20:09.322Z,15.52
2023-04-18T13:22:46.079Z,15.70
2023-04-18T13:25:19.038Z,15.20
2023-04-18T13:27:59.077Z,14.77
2023-04-18T13:30:36.098Z,15.90
2023-04-18T13:33:11.754Z,14.73
2023-04-18T13:35:44.917Z,15.50
2023-04-18T13:38:17.778Z,14.45
2023-04-18T13:40:58.239Z,15.90
2023-04-18T13:43:41.962Z,15.88
2023-04-18T13:46:17.466Z,14.68
2023-04-18T13:48:53.200Z,15.32
2023-04-18T13:51:26.517Z,14.32
2023-04-18T13:54:00.918Z,13.93
2023-04-18T13:56:34.002Z,14.07
2023-04-18T13:59:06.801Z,13.63
2023-04-18T14:01:39.977Z,13.43
2023-04-18T14:04:16.938Z,12.80
2023-04-18T14:06:50.162Z,13.07
2023-04-18T14:09:22.916Z,12.80
2023-04-18T14:11:58.958Z,12.73
2023-04-18T14:14:33.162Z,12.45
2023-04-18T14:17:06.956Z,12.10
2023-04-18T14:19:51.999Z,12.05
2023-04-18T14:22:24.995Z,11.95
2023-04-18T14:24:57.836Z,11.63
2023-04-18T14:27:33.719Z,11.50
2023-04-18T14:30:07.067Z,11.63
2023-04-18T14:32:40.126Z,11.85
2023-04-18T14:35:16.104Z,12.35
2023-04-18T14:37:49.077Z,11.20
2023-04-18T14:40:22.274Z,11.55
2023-04-18T14:42:55.354Z,12.25
2023-04-18T14:45:29.234Z,11.85
2023-04-18T14:48:02.664Z,11.77
2023-04-18T14:50:40.155Z,11.18
2023-04-18T14:53:15.958Z,12.00
2023-04-18T14:55:49.160Z,11.38
2023-04-18T14:58:23.471Z,12.35
2023-04-18T15:00:56.442Z,10.82
2023-04-18T15:03:29.361Z,10.95
2023-04-18T15:06:07.224Z,10.23
2023-04-18T15:08:39.950Z,10.48
2023-04-18T15:11:12.526Z,10.63
2023-04-18T15:13:45.286Z,10.63
2023-04-18T15:16:17.858Z,9.57
2023-04-18T15:19:02.452Z,9.55
2023-04-18T15:21:37.634Z,9.05
2023-04-18T15:24:11.729Z,9.00
2023-04-18T15:26:44.476Z,9.50
2023-04-18T15:29:17.157Z,8.50
2023-04-18T15:31:50.149Z,8.57
2023-04-18T15:34:22.884Z,8.02
2023-04-18T15:36:58.118Z,8.18
2023-04-18T15:39:32.117Z,8.02
2023-04-18T15:42:39.047Z,7.55
2023-04-18T15:45:12.931Z,8.00
2023-04-18T15:47:45.268Z,7.82
2023-04-18T15:50:19.394Z,7.25
2023-04-18T15:52:54.363Z,7.10
2023-04-18T15:55:29.762Z,7.78
2023-04-18T15:58:02.406Z,7.20
2023-04-18T16:00:34.955Z,7.03
2023-04-18T16:03:10.499Z,6.57
2023-04-18T16:05:43.273Z,6.68
2023-04-18T16:08:18.689Z,5.93
2023-04-18T16:10:51.351Z,5.72
2023-04-18T16:13:23.890Z,6.22
2023-04-18T16:15:56.650Z,5.75
2023-04-18T16:18:29.112Z,5.10
2023-04-18T16:21:02.031Z,4.82
2023-04-18T16:23:37.673Z,5.10
2023-04-18T16:26:10.671Z,5.75
2023-04-18T16:28:43.152Z,4.60
2023-04-18T16:31:18.715Z,4.90
2023-04-18T16:33:53.098Z,4.80
2023-04-18T16:36:26.323Z,4.38
2023-04-18T16:39:02.850Z,4.63
2023-04-18T16:41:37.413Z,4.50
2023-04-18T16:44:11.945Z,4.30
2023-04-18T16:46:44.708Z,4.43
2023-04-18T16:49:17.728Z,4.35
2023-04-18T16:51:50.757Z,4.75
2023-04-18T16:54:26.317Z,4.68
2023-04-18T16:56:59.679Z,4.65
2023-04-18T16:59:46.566Z,4.15
2023-04-18T17:02:20.255Z,3.97
2023-04-18T17:04:53.792Z,4.82
2023-04-18T17:07:26.679Z,4.30
2023-04-18T17:10:02.108Z,4.63
2023-04-18T17:12:35.159Z,4.85
2023-04-18T17:15:13.165Z,4.25
2023-04-18T17:17:47.478Z,4.32
2023-04-18T17:20:20.848Z,4.43
2023-04-18T17:23:07.474Z,4.10
2023-04-18T17:25:42.877Z,4.88
2023-04-18T17:28:16.036Z,4.30
2023-04-18T17:30:50.837Z,4.95
2023-04-18T17:33:24.382Z,5.00
2023-04-18T17:35:57.510Z,4.85
2023-04-18T17:38:30.700Z,5.00
2023-04-18T17:41:08.364Z,4.93
2023-04-18T17:43:41.931Z,4.90
2023-04-18T17:46:16.137Z,5.20
2023-04-18T17:48:50.007Z,4.70
2023-04-18T17:51:22.713Z,4.88
2023-04-18T17:53:55.859Z,5.03
2023-04-18T17:56:32.049Z,5.00
2023-04-18T17:59:07.775Z,5.40
2023-04-18T18:01:41.981Z,5.32
2023-04-18T18:04:16.508Z,8.25
2023-04-18T18:06:57.804Z,5.43
2023-04-18T18:09:31.521Z,5.38
2023-04-18T18:12:10.953Z,5.20
2023-04-18T18:14:45.155Z,5.40
2023-04-18T18:17:18.514Z,5.30
2023-04-18T18:19:53.364Z,5.70
2023-04-18T18:22:27.011Z,5.40
2023-04-18T18:25:00.577Z,4.82
2023-04-18T18:27:36.820Z,5.15
2023-04-18T18:30:12.285Z,5.15
2023-04-18T18:32:46.382Z,5.45
2023-04-18T18:35:20.422Z,5.53
2023-04-18T18:37:53.632Z,5.25
2023-04-18T18:40:27.138Z,5.55
2023-04-18T18:43:02.280Z,5.30
2023-04-18T18:45:41.463Z,5.25
2023-04-18T18:48:16.726Z,5.22
2023-04-18T18:50:49.417Z,5.50
2023-04-18T18:53:21.620Z,5.40
2023-04-18T18:55:54.605Z,4.90
2023-04-18T18:58:31.288Z,5.57
2023-04-18T19:01:06.306Z,5.63
2023-04-18T19:03:38.583Z,5.35
2023-04-18T19:06:10.971Z,5.20
2023-04-18T19:08:45.165Z,5.05
2023-04-18T19:11:19.256Z,5.15
2023-04-18T19:13:54.854Z,5.30
2023-04-18T19:16:27.532Z,5.50
2023-04-18T19:18:59.558Z,5.45
2023-04-18T19:21:34.774Z,5.30
2023-04-18T19:24:13.560Z,5.63
2023-04-18T19:26:50.827Z,5.43
2023-04-18T19:29:27.671Z,5.70
2023-04-18T19:32:02.746Z,6.10
2023-04-18T19:34:35.073Z,6.07
2023-04-18T19:37:10.410Z,5.82
2023-04-18T19:39:45.826Z,5.35
2023-04-18T19:42:18.212Z,5.90
2023-04-18T19:44:53.072Z,5.78
2023-04-18T19:47:25.536Z,5.93
2023-04-18T19:49:57.566Z,5.75
2023-04-18T19:52:32.269Z,6.00
2023-04-18T19:55:04.335Z,7.03
2023-04-18T19:57:42.574Z,6.00
2023-04-18T20:00:19.409Z,6.47
2023-04-18T20:02:52.037Z,6.43
2023-04-18T20:05:24.750Z,6.70
2023-04-18T20:07:57.243Z,6.55
2023-04-18T20:10:30.336Z,6.68
2023-04-18T20:13:02.692Z,6.25
2023-04-18T20:15:46.027Z,6.28
2023-04-18T20:18:18.837Z,5.90
2023-04-18T20:20:52.191Z,6.82
2023-04-18T20:23:27.612Z,6.28
2023-04-18T20:26:10.347Z,7.53
2023-04-18T20:28:43.129Z,7.13
2023-04-18T20:31:18.386Z,6.78
2023-04-18T20:33:55.648Z,6.72
2023-04-18T20:36:29.644Z,7.18
2023-04-18T20:39:02.747Z,6.97
2023-04-18T20:41:35.578Z,6.65
2023-04-18T20:44:10.447Z,7.38
2023-04-18T20:46:46.625Z,6.95
2023-04-18T20:49:19.590Z,7.03
2023-04-18T20:51:52.476Z,7.90
2023-04-18T20:54:25.554Z,7.63
2023-04-18T20:56:58.051Z,7.22
2023-04-18T20:59:31.706Z,7.10
2023-04-18T21:02:07.291Z,7.85
2023-04-18T21:04:40.677Z,8.10
2023-04-18T21:07:13.711Z,7.88
2023-04-18T21:09:47.310Z,7.20
2023-04-18T21:12:20.353Z,8.98
2023-04-18T21:14:54.955Z,8.07
2023-04-18T21:17:32.386Z,7.85
2023-04-18T21:20:06.998Z,8.32
2023-04-18T21:23:00.194Z,8.18
2023-04-18T21:25:33.071Z,8.93
2023-04-18T21:28:05.352Z,9.70
2023-04-18T21:30:37.898Z,8.75
2023-04-18T21:33:12.692Z,8.20
2023-04-18T21:35:45.291Z,9.23
2023-04-18T21:38:17.411Z,9.23
2023-04-18T21:40:50.091Z,9.63
2023-04-18T21:43:22.371Z,9.35
2023-04-18T21:45:54.992Z,9.88
2023-04-18T21:48:29.729Z,9.82
2023-04-18T21:51:03.165Z,9.55
2023-04-18T21:53:35.233Z,8.77
2023-04-18T21:56:07.571Z,8.93
2023-04-18T21:58:39.584Z,9.07
2023-04-18T22:01:12.072Z,9.73
2023-04-18T22:03:47.302Z,9.07
2023-04-18T22:06:21.263Z,8.68
2023-04-18T22:08:53.157Z,8.85
2023-04-18T22:11:25.935Z,8.82
2023-04-18T22:13:58.522Z,8.30
2023-04-18T22:16:31.049Z,8.77
2023-04-18T22:19:06.089Z,9.07
2023-04-18T22:21:38.710Z,8.40
2023-04-18T22:24:12.676Z,8.85
2023-04-18T22:26:45.372Z,8.77
2023-04-18T22:29:17.380Z,8.20
2023-04-18T22:31:49.855Z,7.85
2023-04-18T22:34:26.718Z,7.68
2023-04-18T22:36:58.998Z,7.78
2023-04-18T22:39:31.506Z,7.30
2023-04-18T22:42:03.833Z,6.97
2023-04-18T22:44:36.004Z,6.65
2023-04-18T22:47:08.439Z,7.63
2023-04-18T22:49:43.058Z,6.65
2023-04-18T22:52:15.993Z,6.80
2023-04-18T22:54:48.112Z,6.15
2023-04-18T22:57:58.632Z,6.50
2023-04-18T23:00:33.926Z,6.45
2023-04-18T23:03:06.530Z,6.70
2023-04-18T23:05:41.551Z,6.38
2023-04-18T23:08:14.317Z,6.38
2023-04-18T23:10:46.395Z,6.20
2023-04-18T23:13:18.682Z,5.75
2023-04-18T23:15:50.515Z,5.88
2023-04-18T23:18:23.017Z,5.68
2023-04-18T23:20:57.815Z,5.63
2023-04-18T23:23:30.566Z,5.90
2023-04-18T23:26:02.456Z,5.57
2023-04-18T23:28:34.899Z,5.65
2023-04-18T23:31:07.007Z,5.40
2023-04-18T23:33:39.356Z,5.53
2023-04-18T23:36:15.101Z,5.40
2023-04-18T23:38:47.766Z,5.10
2023-04-18T23:41:19.782Z,5.22
2023-04-18T23:43:52.493Z,5.47
2023-04-18T23:46:24.804Z,5.55
2023-04-18T23:48:57.220Z,5.30
2023-04-18T23:51:32.312Z,5.03
2023-04-18T23:54:05.067Z,4.90
2023-04-18T23:56:37.754Z,4.68
2023-04-18T23:59:10.473Z,5.15
